sensor_id;sensor_type;location;lat;lon;timestamp;P1;durP1;ratioP1;P2;durP2;ratioP2
16320;SDS011;8269;50.990;4.494;2022-11-15T00:00:29;35.27;;;26.97;;
16320;SDS011;8269;50.990;4.494;2022-11-15T00:02:55;35.27;;;26.73;;
16320;SDS011;8269;50.990;4.494;2022-11-15T00:05:21;32.10;;;26.43;;
16320;SDS011;8269;50.990;4.494;2022-11-15T00:07:47;32.07;;;26.87;;
16320;SDS011;8269;50.990;4.494;2022-11-15T00:10:13;31.13;;;26.10;;
16320;SDS011;8269;50.990;4.494;2022-11-15T00:12:41;30.20;;;26.03;;
16320;SDS011;8269;50.990;4.494;2022-11-15T00:15:06;31.67;;;26.30;;
16320;SDS011;8269;50.990;4.494;2022-11-15T00:17:33;31.80;;;27.27;;
16320;SDS011;8269;50.990;4.494;2022-11-15T00:19:59;35.47;;;27.33;;
16320;SDS011;8269;50.990;4.494;2022-11-15T00:22:25;31.60;;;26.17;;
16320;SDS011;8269;50.990;4.494;2022-11-15T00:24:57;29.97;;;26.13;;
16320;SDS011;8269;50.990;4.494;2022-11-15T00:27:23;34.77;;;27.00;;
16320;SDS011;8269;50.990;4.494;2022-11-15T00:29:49;29.03;;;25.77;;
16320;SDS011;8269;50.990;4.494;2022-11-15T00:32:14;30.20;;;26.43;;
16320;SDS011;8269;50.990;4.494;2022-11-15T00:34:40;32.60;;;27.33;;
16320;SDS011;8269;50.990;4.494;2022-11-15T00:37:06;32.60;;;27.03;;
16320;SDS011;8269;50.990;4.494;2022-11-15T00:39:31;29.93;;;26.20;;
16320;SDS011;8269;50.990;4.494;2022-11-15T00:41:57;30.53;;;26.20;;
16320;SDS011;8269;50.990;4.494;2022-11-15T00:44:22;31.97;;;27.30;;
16320;SDS011;8269;50.990;4.494;2022-11-15T00:46:48;35.60;;;27.97;;
16320;SDS011;8269;50.990;4.494;2022-11-15T00:49:13;35.20;;;27.60;;
16320;SDS011;8269;50.990;4.494;2022-11-15T00:51:39;33.23;;;27.43;;
16320;SDS011;8269;50.990;4.494;2022-11-15T00:54:05;34.07;;;27.57;;
16320;SDS011;8269;50.990;4.494;2022-11-15T00:56:30;32.93;;;27.30;;
16320;SDS011;8269;50.990;4.494;2022-11-15T00:58:56;34.00;;;28.70;;
16320;SDS011;8269;50.990;4.494;2022-11-15T01:01:23;33.53;;;27.53;;
16320;SDS011;8269;50.990;4.494;2022-11-15T01:03:48;30.63;;;26.87;;
16320;SDS011;8269;50.990;4.494;2022-11-15T01:06:14;35.23;;;28.50;;
16320;SDS011;8269;50.990;4.494;2022-11-15T01:08:39;33.57;;;28.17;;
16320;SDS011;8269;50.990;4.494;2022-11-15T01:11:07;30.57;;;27.33;;
16320;SDS011;8269;50.990;4.494;2022-11-15T01:13:35;32.43;;;27.60;;
16320;SDS011;8269;50.990;4.494;2022-11-15T01:18:37;32.27;;;27.77;;
16320;SDS011;8269;50.990;4.494;2022-11-15T01:21:07;32.67;;;27.77;;
16320;SDS011;8269;50.990;4.494;2022-11-15T01:23:34;32.27;;;27.03;;
16320;SDS011;8269;50.990;4.494;2022-11-15T01:26:00;32.97;;;26.90;;
16320;SDS011;8269;50.990;4.494;2022-11-15T01:28:35;31.77;;;27.00;;
16320;SDS011;8269;50.990;4.494;2022-11-15T01:31:05;32.47;;;27.57;;
16320;SDS011;8269;50.990;4.494;2022-11-15T01:33:35;34.60;;;28.70;;
16320;SDS011;8269;50.990;4.494;2022-11-15T01:36:21;32.37;;;27.63;;
16320;SDS011;8269;50.990;4.494;2022-11-15T01:38:52;34.37;;;28.63;;
16320;SDS011;8269;50.990;4.494;2022-11-15T01:41:20;32.63;;;28.17;;
16320;SDS011;8269;50.990;4.494;2022-11-15T01:43:52;36.13;;;29.43;;
16320;SDS011;8269;50.990;4.494;2022-11-15T01:49:00;36.03;;;30.60;;
16320;SDS011;8269;50.990;4.494;2022-11-15T01:51:30;38.37;;;29.87;;
16320;SDS011;8269;50.990;4.494;2022-11-15T01:53:59;35.80;;;29.90;;
16320;SDS011;8269;50.990;4.494;2022-11-15T01:56:29;37.17;;;29.30;;
16320;SDS011;8269;50.990;4.494;2022-11-15T01:58:58;38.87;;;29.83;;
16320;SDS011;8269;50.990;4.494;2022-11-15T02:01:27;32.27;;;28.83;;
16320;SDS011;8269;50.990;4.494;2022-11-15T02:03:57;34.20;;;27.83;;
16320;SDS011;8269;50.990;4.494;2022-11-15T02:06:26;36.90;;;28.33;;
16320;SDS011;8269;50.990;4.494;2022-11-15T02:08:52;33.13;;;29.43;;
16320;SDS011;8269;50.990;4.494;2022-11-15T02:11:21;36.17;;;28.53;;
16320;SDS011;8269;50.990;4.494;2022-11-15T02:13:47;35.83;;;29.53;;
16320;SDS011;8269;50.990;4.494;2022-11-15T02:16:27;33.70;;;27.73;;
16320;SDS011;8269;50.990;4.494;2022-11-15T02:30:41;31.40;;;24.87;;
16320;SDS011;8269;50.990;4.494;2022-11-15T02:33:24;32.80;;;24.67;;
16320;SDS011;8269;50.990;4.494;2022-11-15T02:36:05;33.07;;;25.27;;
16320;SDS011;8269;50.990;4.494;2022-11-15T02:39:10;28.20;;;24.17;;
16320;SDS011;8269;50.990;4.494;2022-11-15T02:41:55;31.03;;;24.63;;
16320;SDS011;8269;50.990;4.494;2022-11-15T02:44:34;32.27;;;23.60;;
16320;SDS011;8269;50.990;4.494;2022-11-15T02:47:04;27.47;;;23.77;;
16320;SDS011;8269;50.990;4.494;2022-11-15T02:49:40;30.90;;;24.73;;
16320;SDS011;8269;50.990;4.494;2022-11-15T02:52:17;29.57;;;24.03;;
16320;SDS011;8269;50.990;4.494;2022-11-15T02:54:55;28.90;;;24.00;;
16320;SDS011;8269;50.990;4.494;2022-11-15T02:58:06;35.47;;;25.37;;
16320;SDS011;8269;50.990;4.494;2022-11-15T03:00:18;30.33;;;24.93;;
16320;SDS011;8269;50.990;4.494;2022-11-15T03:02:59;29.73;;;25.13;;
16320;SDS011;8269;50.990;4.494;2022-11-15T03:05:37;30.33;;;26.10;;
16320;SDS011;8269;50.990;4.494;2022-11-15T03:18:59;27.07;;;24.13;;
16320;SDS011;8269;50.990;4.494;2022-11-15T03:21:49;32.17;;;24.10;;
16320;SDS011;8269;50.990;4.494;2022-11-15T03:24:17;26.93;;;22.87;;
16320;SDS011;8269;50.990;4.494;2022-11-15T03:26:45;28.90;;;22.13;;
16320;SDS011;8269;50.990;4.494;2022-11-15T03:29:19;26.20;;;21.23;;
16320;SDS011;8269;50.990;4.494;2022-11-15T03:31:54;25.73;;;21.67;;
16320;SDS011;8269;50.990;4.494;2022-11-15T03:34:32;28.73;;;20.93;;
16320;SDS011;8269;50.990;4.494;2022-11-15T03:36:59;27.53;;;21.60;;
16320;SDS011;8269;50.990;4.494;2022-11-15T03:39:26;27.90;;;21.67;;
16320;SDS011;8269;50.990;4.494;2022-11-15T03:42:08;26.27;;;20.23;;
16320;SDS011;8269;50.990;4.494;2022-11-15T03:47:48;28.57;;;19.53;;
16320;SDS011;8269;50.990;4.494;2022-11-15T03:50:20;25.73;;;18.63;;
16320;SDS011;8269;50.990;4.494;2022-11-15T03:52:48;22.00;;;18.17;;
16320;SDS011;8269;50.990;4.494;2022-11-15T03:55:18;22.93;;;17.77;;
16320;SDS011;8269;50.990;4.494;2022-11-15T03:57:46;24.90;;;17.63;;
16320;SDS011;8269;50.990;4.494;2022-11-15T04:00:13;19.67;;;13.80;;
16320;SDS011;8269;50.990;4.494;2022-11-15T04:02:39;21.30;;;14.37;;
16320;SDS011;8269;50.990;4.494;2022-11-15T04:05:05;19.60;;;14.43;;
16320;SDS011;8269;50.990;4.494;2022-11-15T04:07:30;19.90;;;13.77;;
16320;SDS011;8269;50.990;4.494;2022-11-15T04:09:56;15.13;;;12.63;;
16320;SDS011;8269;50.990;4.494;2022-11-15T04:12:28;17.33;;;12.63;;
16320;SDS011;8269;50.990;4.494;2022-11-15T04:14:58;18.77;;;12.67;;
16320;SDS011;8269;50.990;4.494;2022-11-15T04:17:41;16.13;;;12.37;;
16320;SDS011;8269;50.990;4.494;2022-11-15T04:23:06;16.13;;;12.57;;
16320;SDS011;8269;50.990;4.494;2022-11-15T04:25:52;16.37;;;11.37;;
16320;SDS011;8269;50.990;4.494;2022-11-15T04:28:20;16.63;;;11.77;;
16320;SDS011;8269;50.990;4.494;2022-11-15T04:30:46;16.47;;;12.03;;
16320;SDS011;8269;50.990;4.494;2022-11-15T04:33:11;16.07;;;11.70;;
16320;SDS011;8269;50.990;4.494;2022-11-15T04:35:37;18.67;;;12.27;;
16320;SDS011;8269;50.990;4.494;2022-11-15T04:38:03;19.20;;;12.07;;
16320;SDS011;8269;50.990;4.494;2022-11-15T04:40:31;16.30;;;11.27;;
16320;SDS011;8269;50.990;4.494;2022-11-15T04:42:56;17.43;;;12.17;;
16320;SDS011;8269;50.990;4.494;2022-11-15T04:45:22;18.67;;;12.53;;
16320;SDS011;8269;50.990;4.494;2022-11-15T04:47:48;15.47;;;12.00;;
16320;SDS011;8269;50.990;4.494;2022-11-15T04:50:14;14.63;;;11.30;;
16320;SDS011;8269;50.990;4.494;2022-11-15T04:52:41;17.43;;;11.83;;
16320;SDS011;8269;50.990;4.494;2022-11-15T04:55:09;14.37;;;10.63;;
16320;SDS011;8269;50.990;4.494;2022-11-15T04:57:36;15.80;;;10.67;;
16320;SDS011;8269;50.990;4.494;2022-11-15T05:00:05;14.30;;;10.30;;
16320;SDS011;8269;50.990;4.494;2022-11-15T05:02:33;14.13;;;10.60;;
16320;SDS011;8269;50.990;4.494;2022-11-15T05:05:17;15.73;;;10.43;;
16320;SDS011;8269;50.990;4.494;2022-11-15T05:07:43;14.93;;;9.63;;
16320;SDS011;8269;50.990;4.494;2022-11-15T05:10:09;16.90;;;9.53;;
16320;SDS011;8269;50.990;4.494;2022-11-15T05:12:35;17.10;;;9.90;;
16320;SDS011;8269;50.990;4.494;2022-11-15T05:15:01;13.57;;;9.20;;
16320;SDS011;8269;50.990;4.494;2022-11-15T05:17:26;14.10;;;8.77;;
16320;SDS011;8269;50.990;4.494;2022-11-15T05:19:52;10.37;;;8.67;;
16320;SDS011;8269;50.990;4.494;2022-11-15T05:22:18;14.77;;;7.83;;
16320;SDS011;8269;50.990;4.494;2022-11-15T05:24:44;15.20;;;7.73;;
16320;SDS011;8269;50.990;4.494;2022-11-15T05:27:10;14.20;;;7.40;;
16320;SDS011;8269;50.990;4.494;2022-11-15T05:29:35;12.27;;;7.87;;
16320;SDS011;8269;50.990;4.494;2022-11-15T05:32:02;14.37;;;7.83;;
16320;SDS011;8269;50.990;4.494;2022-11-15T05:34:30;11.63;;;7.70;;
16320;SDS011;8269;50.990;4.494;2022-11-15T05:36:56;10.67;;;6.90;;
16320;SDS011;8269;50.990;4.494;2022-11-15T05:39:21;12.27;;;7.50;;
16320;SDS011;8269;50.990;4.494;2022-11-15T05:41:48;13.43;;;6.87;;
16320;SDS011;8269;50.990;4.494;2022-11-15T05:44:22;9.77;;;6.30;;
16320;SDS011;8269;50.990;4.494;2022-11-15T05:46:48;11.33;;;6.90;;
16320;SDS011;8269;50.990;4.494;2022-11-15T05:49:18;14.47;;;7.53;;
16320;SDS011;8269;50.990;4.494;2022-11-15T05:51:47;10.50;;;6.60;;
16320;SDS011;8269;50.990;4.494;2022-11-15T05:54:14;13.00;;;7.23;;
16320;SDS011;8269;50.990;4.494;2022-11-15T05:56:40;9.60;;;6.60;;
16320;SDS011;8269;50.990;4.494;2022-11-15T05:59:07;15.80;;;7.93;;
16320;SDS011;8269;50.990;4.494;2022-11-15T06:01:34;9.63;;;7.27;;
16320;SDS011;8269;50.990;4.494;2022-11-15T06:03:59;13.97;;;9.33;;
16320;SDS011;8269;50.990;4.494;2022-11-15T06:06:26;14.53;;;8.83;;
16320;SDS011;8269;50.990;4.494;2022-11-15T06:08:53;12.20;;;7.77;;
16320;SDS011;8269;50.990;4.494;2022-11-15T06:11:18;15.17;;;7.27;;
16320;SDS011;8269;50.990;4.494;2022-11-15T06:13:44;12.70;;;7.40;;
16320;SDS011;8269;50.990;4.494;2022-11-15T06:16:09;12.97;;;7.20;;
16320;SDS011;8269;50.990;4.494;2022-11-15T06:18:35;13.83;;;6.77;;
16320;SDS011;8269;50.990;4.494;2022-11-15T06:21:01;12.27;;;6.20;;
16320;SDS011;8269;50.990;4.494;2022-11-15T06:23:27;10.00;;;6.47;;
16320;SDS011;8269;50.990;4.494;2022-11-15T06:25:58;17.50;;;6.63;;
16320;SDS011;8269;50.990;4.494;2022-11-15T06:28:28;18.40;;;6.37;;
16320;SDS011;8269;50.990;4.494;2022-11-15T06:30:55;11.90;;;5.83;;
16320;SDS011;8269;50.990;4.494;2022-11-15T06:33:21;10.10;;;6.00;;
16320;SDS011;8269;50.990;4.494;2022-11-15T06:35:47;12.13;;;5.87;;
16320;SDS011;8269;50.990;4.494;2022-11-15T06:38:12;14.67;;;6.77;;
16320;SDS011;8269;50.990;4.494;2022-11-15T06:40:38;12.20;;;6.90;;
16320;SDS011;8269;50.990;4.494;2022-11-15T06:43:05;13.93;;;6.73;;
16320;SDS011;8269;50.990;4.494;2022-11-15T06:45:31;11.20;;;7.27;;
16320;SDS011;8269;50.990;4.494;2022-11-15T06:47:57;12.77;;;7.80;;
16320;SDS011;8269;50.990;4.494;2022-11-15T06:50:23;15.67;;;8.53;;
16320;SDS011;8269;50.990;4.494;2022-11-15T06:52:49;15.50;;;8.43;;
16320;SDS011;8269;50.990;4.494;2022-11-15T06:55:14;16.30;;;7.70;;
16320;SDS011;8269;50.990;4.494;2022-11-15T06:57:50;15.87;;;9.00;;
16320;SDS011;8269;50.990;4.494;2022-11-15T07:00:17;13.27;;;7.87;;
16320;SDS011;8269;50.990;4.494;2022-11-15T07:02:44;18.03;;;8.43;;
16320;SDS011;8269;50.990;4.494;2022-11-15T07:05:10;14.10;;;9.30;;
16320;SDS011;8269;50.990;4.494;2022-11-15T07:07:37;16.47;;;9.57;;
16320;SDS011;8269;50.990;4.494;2022-11-15T07:10:03;17.30;;;9.37;;
16320;SDS011;8269;50.990;4.494;2022-11-15T07:12:29;18.67;;;10.50;;
16320;SDS011;8269;50.990;4.494;2022-11-15T07:14:55;15.63;;;9.80;;
16320;SDS011;8269;50.990;4.494;2022-11-15T07:17:21;19.43;;;10.23;;
16320;SDS011;8269;50.990;4.494;2022-11-15T07:19:47;16.17;;;10.47;;
16320;SDS011;8269;50.990;4.494;2022-11-15T07:22:12;17.83;;;10.70;;
16320;SDS011;8269;50.990;4.494;2022-11-15T07:24:38;18.70;;;10.90;;
16320;SDS011;8269;50.990;4.494;2022-11-15T07:27:03;15.17;;;11.10;;
16320;SDS011;8269;50.990;4.494;2022-11-15T07:29:29;16.73;;;10.67;;
16320;SDS011;8269;50.990;4.494;2022-11-15T07:31:54;15.80;;;10.43;;
16320;SDS011;8269;50.990;4.494;2022-11-15T07:34:20;16.63;;;10.37;;
16320;SDS011;8269;50.990;4.494;2022-11-15T07:36:46;15.00;;;10.13;;
16320;SDS011;8269;50.990;4.494;2022-11-15T07:39:11;15.87;;;9.70;;
16320;SDS011;8269;50.990;4.494;2022-11-15T07:41:37;14.57;;;9.03;;
16320;SDS011;8269;50.990;4.494;2022-11-15T07:44:04;11.83;;;8.57;;
16320;SDS011;8269;50.990;4.494;2022-11-15T07:46:31;14.50;;;9.00;;
16320;SDS011;8269;50.990;4.494;2022-11-15T07:48:56;15.30;;;9.60;;
16320;SDS011;8269;50.990;4.494;2022-11-15T07:51:22;18.57;;;9.90;;
16320;SDS011;8269;50.990;4.494;2022-11-15T07:53:48;15.40;;;9.47;;
16320;SDS011;8269;50.990;4.494;2022-11-15T07:56:14;18.70;;;9.57;;
16320;SDS011;8269;50.990;4.494;2022-11-15T07:58:39;16.80;;;9.20;;
16320;SDS011;8269;50.990;4.494;2022-11-15T08:01:06;15.60;;;9.50;;
16320;SDS011;8269;50.990;4.494;2022-11-15T08:03:33;14.20;;;9.13;;
16320;SDS011;8269;50.990;4.494;2022-11-15T08:05:59;13.43;;;9.27;;
16320;SDS011;8269;50.990;4.494;2022-11-15T08:08:25;14.20;;;8.20;;
16320;SDS011;8269;50.990;4.494;2022-11-15T08:10:51;10.20;;;7.40;;
16320;SDS011;8269;50.990;4.494;2022-11-15T08:13:17;13.20;;;6.83;;
16320;SDS011;8269;50.990;4.494;2022-11-15T08:15:43;12.93;;;6.70;;
16320;SDS011;8269;50.990;4.494;2022-11-15T08:18:10;13.13;;;5.90;;
16320;SDS011;8269;50.990;4.494;2022-11-15T08:20:40;11.17;;;5.37;;
16320;SDS011;8269;50.990;4.494;2022-11-15T08:23:06;8.40;;;4.53;;
16320;SDS011;8269;50.990;4.494;2022-11-15T08:25:33;6.87;;;4.40;;
16320;SDS011;8269;50.990;4.494;2022-11-15T08:28:01;9.70;;;4.10;;
16320;SDS011;8269;50.990;4.494;2022-11-15T08:30:29;6.60;;;4.10;;
16320;SDS011;8269;50.990;4.494;2022-11-15T08:32:56;6.87;;;3.90;;
16320;SDS011;8269;50.990;4.494;2022-11-15T08:35:23;12.50;;;4.00;;
16320;SDS011;8269;50.990;4.494;2022-11-15T08:37:49;8.13;;;4.13;;
16320;SDS011;8269;50.990;4.494;2022-11-15T08:40:17;8.77;;;3.47;;
16320;SDS011;8269;50.990;4.494;2022-11-15T08:42:45;8.73;;;3.93;;
16320;SDS011;8269;50.990;4.494;2022-11-15T08:45:11;7.77;;;3.33;;
16320;SDS011;8269;50.990;4.494;2022-11-15T09:09:27;18.65;;;4.95;;
16320;SDS011;8269;50.990;4.494;2022-11-15T09:11:53;10.00;;;2.70;;
16320;SDS011;8269;50.990;4.494;2022-11-15T09:14:19;12.37;;;2.50;;
16320;SDS011;8269;50.990;4.494;2022-11-15T09:16:44;5.23;;;2.07;;
16320;SDS011;8269;50.990;4.494;2022-11-15T09:50:48;5.03;;;1.80;;
16320;SDS011;8269;50.990;4.494;2022-11-15T09:53:22;8.07;;;2.15;;
16320;SDS011;8269;50.990;4.494;2022-11-15T09:56:18;6.25;;;2.05;;
16320;SDS011;8269;50.990;4.494;2022-11-15T10:01:26;9.45;;;2.25;;
16320;SDS011;8269;50.990;4.494;2022-11-15T10:03:55;7.28;;;2.50;;
16320;SDS011;8269;50.990;4.494;2022-11-15T10:06:23;8.15;;;2.20;;
16320;SDS011;8269;50.990;4.494;2022-11-15T10:11:30;8.18;;;2.30;;
16320;SDS011;8269;50.990;4.494;2022-11-15T10:14:01;7.83;;;2.13;;
16320;SDS011;8269;50.990;4.494;2022-11-15T10:24:48;8.07;;;1.93;;
16320;SDS011;8269;50.990;4.494;2022-11-15T10:27:18;8.43;;;2.10;;
16320;SDS011;8269;50.990;4.494;2022-11-15T10:29:45;10.53;;;1.87;;
16320;SDS011;8269;50.990;4.494;2022-11-15T10:32:13;10.90;;;2.17;;
16320;SDS011;8269;50.990;4.494;2022-11-15T10:34:40;10.07;;;1.93;;
16320;SDS011;8269;50.990;4.494;2022-11-15T10:37:06;9.57;;;2.30;;
16320;SDS011;8269;50.990;4.494;2022-11-15T10:39:32;7.17;;;1.57;;
16320;SDS011;8269;50.990;4.494;2022-11-15T10:44:52;8.77;;;2.17;;
16320;SDS011;8269;50.990;4.494;2022-11-15T10:47:25;8.70;;;2.20;;
16320;SDS011;8269;50.990;4.494;2022-11-15T10:50:06;10.63;;;2.00;;
16320;SDS011;8269;50.990;4.494;2022-11-15T10:52:51;7.93;;;2.40;;
16320;SDS011;8269;50.990;4.494;2022-11-15T10:57:48;6.90;;;1.80;;
16320;SDS011;8269;50.990;4.494;2022-11-15T11:05:50;6.38;;;2.15;;
16320;SDS011;8269;50.990;4.494;2022-11-15T11:10:56;6.10;;;2.00;;
16320;SDS011;8269;50.990;4.494;2022-11-15T11:43:00;6.90;;;1.87;;
16320;SDS011;8269;50.990;4.494;2022-11-15T11:48:51;5.53;;;1.50;;
16320;SDS011;8269;50.990;4.494;2022-11-15T11:51:26;6.63;;;1.87;;
16320;SDS011;8269;50.990;4.494;2022-11-15T11:56:28;9.27;;;2.07;;
16320;SDS011;8269;50.990;4.494;2022-11-15T11:59:05;6.47;;;1.67;;
16320;SDS011;8269;50.990;4.494;2022-11-15T12:01:42;5.90;;;1.50;;
16320;SDS011;8269;50.990;4.494;2022-11-15T12:04:26;6.07;;;2.00;;
16320;SDS011;8269;50.990;4.494;2022-11-15T12:09:29;6.27;;;1.97;;
16320;SDS011;8269;50.990;4.494;2022-11-15T12:12:13;7.63;;;1.53;;
16320;SDS011;8269;50.990;4.494;2022-11-15T12:14:48;6.33;;;1.57;;
16320;SDS011;8269;50.990;4.494;2022-11-15T12:17:18;11.37;;;2.00;;
16320;SDS011;8269;50.990;4.494;2022-11-15T12:19:48;7.67;;;2.30;;
16320;SDS011;8269;50.990;4.494;2022-11-15T12:22:30;5.90;;;1.70;;
16320;SDS011;8269;50.990;4.494;2022-11-15T12:25:08;7.03;;;1.70;;
16320;SDS011;8269;50.990;4.494;2022-11-15T12:28:08;5.00;;;1.83;;
16320;SDS011;8269;50.990;4.494;2022-11-15T12:30:53;5.27;;;1.70;;
16320;SDS011;8269;50.990;4.494;2022-11-15T12:35:58;7.70;;;1.80;;
16320;SDS011;8269;50.990;4.494;2022-11-15T12:41:25;5.33;;;1.87;;
16320;SDS011;8269;50.990;4.494;2022-11-15T12:43:51;5.37;;;1.80;;
16320;SDS011;8269;50.990;4.494;2022-11-15T12:48:55;5.47;;;1.50;;
16320;SDS011;8269;50.990;4.494;2022-11-15T13:02:19;7.07;;;2.03;;
16320;SDS011;8269;50.990;4.494;2022-11-15T13:15:51;4.87;;;1.53;;
16320;SDS011;8269;50.990;4.494;2022-11-15T13:17:57;6.83;;;1.70;;
16320;SDS011;8269;50.990;4.494;2022-11-15T13:20:31;4.33;;;1.77;;
16320;SDS011;8269;50.990;4.494;2022-11-15T13:28:01;5.97;;;1.80;;
16320;SDS011;8269;50.990;4.494;2022-11-15T13:30:34;8.07;;;1.80;;
16320;SDS011;8269;50.990;4.494;2022-11-15T13:33:05;4.83;;;1.50;;
16320;SDS011;8269;50.990;4.494;2022-11-15T13:35:33;5.53;;;1.70;;
16320;SDS011;8269;50.990;4.494;2022-11-15T13:38:06;6.13;;;1.70;;
16320;SDS011;8269;50.990;4.494;2022-11-15T13:40:42;4.60;;;1.97;;
16320;SDS011;8269;50.990;4.494;2022-11-15T13:48:29;5.83;;;1.83;;
16320;SDS011;8269;50.990;4.494;2022-11-15T13:50:55;7.20;;;2.13;;
16320;SDS011;8269;50.990;4.494;2022-11-15T13:53:22;7.13;;;1.97;;
16320;SDS011;8269;50.990;4.494;2022-11-15T13:55:49;5.00;;;1.73;;
16320;SDS011;8269;50.990;4.494;2022-11-15T13:58:15;5.97;;;1.60;;
16320;SDS011;8269;50.990;4.494;2022-11-15T14:00:44;4.17;;;1.60;;
16320;SDS011;8269;50.990;4.494;2022-11-15T14:06:05;6.73;;;1.97;;
16320;SDS011;8269;50.990;4.494;2022-11-15T14:08:40;8.23;;;2.10;;
16320;SDS011;8269;50.990;4.494;2022-11-15T14:11:26;5.30;;;1.83;;
16320;SDS011;8269;50.990;4.494;2022-11-15T14:16:46;7.10;;;2.43;;
16320;SDS011;8269;50.990;4.494;2022-11-15T14:24:35;4.97;;;2.03;;
16320;SDS011;8269;50.990;4.494;2022-11-15T14:27:21;5.63;;;2.70;;
16320;SDS011;8269;50.990;4.494;2022-11-15T14:29:50;6.53;;;2.60;;
16320;SDS011;8269;50.990;4.494;2022-11-15T14:34:41;9.77;;;3.30;;
16320;SDS011;8269;50.990;4.494;2022-11-15T14:37:26;13.40;;;9.67;;
16320;SDS011;8269;50.990;4.494;2022-11-15T14:39:53;11.20;;;7.37;;
16320;SDS011;8269;50.990;4.494;2022-11-15T14:42:20;12.97;;;10.43;;
16320;SDS011;8269;50.990;4.494;2022-11-15T14:44:47;7.73;;;5.70;;
16320;SDS011;8269;50.990;4.494;2022-11-15T14:47:12;8.00;;;5.57;;
16320;SDS011;8269;50.990;4.494;2022-11-15T14:49:38;8.23;;;5.00;;
16320;SDS011;8269;50.990;4.494;2022-11-15T14:55:03;8.17;;;4.30;;
16320;SDS011;8269;50.990;4.494;2022-11-15T14:57:36;9.10;;;6.30;;
16320;SDS011;8269;50.990;4.494;2022-11-15T15:00:02;6.80;;;4.40;;
16320;SDS011;8269;50.990;4.494;2022-11-15T15:02:29;8.23;;;5.83;;
16320;SDS011;8269;50.990;4.494;2022-11-15T15:04:55;5.90;;;3.70;;
16320;SDS011;8269;50.990;4.494;2022-11-15T15:07:25;8.13;;;4.87;;
16320;SDS011;8269;50.990;4.494;2022-11-15T15:09:51;10.47;;;5.27;;
16320;SDS011;8269;50.990;4.494;2022-11-15T15:12:21;7.70;;;4.03;;
16320;SDS011;8269;50.990;4.494;2022-11-15T15:14:48;6.47;;;4.40;;
16320;SDS011;8269;50.990;4.494;2022-11-15T15:17:15;9.77;;;5.90;;
16320;SDS011;8269;50.990;4.494;2022-11-15T15:19:41;9.90;;;5.37;;
16320;SDS011;8269;50.990;4.494;2022-11-15T15:22:11;6.07;;;3.13;;
16320;SDS011;8269;50.990;4.494;2022-11-15T15:24:42;6.90;;;4.17;;
16320;SDS011;8269;50.990;4.494;2022-11-15T15:27:08;8.67;;;6.03;;
16320;SDS011;8269;50.990;4.494;2022-11-15T15:29:34;9.87;;;6.30;;
16320;SDS011;8269;50.990;4.494;2022-11-15T15:32:00;6.27;;;4.50;;
16320;SDS011;8269;50.990;4.494;2022-11-15T15:34:25;6.30;;;3.40;;
16320;SDS011;8269;50.990;4.494;2022-11-15T15:39:45;6.20;;;2.63;;
16320;SDS011;8269;50.990;4.494;2022-11-15T15:42:10;6.10;;;3.07;;
16320;SDS011;8269;50.990;4.494;2022-11-15T15:44:36;4.70;;;2.80;;
16320;SDS011;8269;50.990;4.494;2022-11-15T15:47:01;6.17;;;2.90;;
16320;SDS011;8269;50.990;4.494;2022-11-15T15:49:32;6.40;;;3.30;;
16320;SDS011;8269;50.990;4.494;2022-11-15T15:51:58;5.07;;;3.20;;
16320;SDS011;8269;50.990;4.494;2022-11-15T15:54:24;7.50;;;3.60;;
16320;SDS011;8269;50.990;4.494;2022-11-15T15:56:49;6.87;;;4.60;;
16320;SDS011;8269;50.990;4.494;2022-11-15T15:59:15;8.83;;;6.77;;
16320;SDS011;8269;50.990;4.494;2022-11-15T16:01:40;7.53;;;5.17;;
16320;SDS011;8269;50.990;4.494;2022-11-15T16:04:06;6.60;;;3.97;;
16320;SDS011;8269;50.990;4.494;2022-11-15T16:06:41;8.00;;;4.30;;
16320;SDS011;8269;50.990;4.494;2022-11-15T16:09:13;6.00;;;3.07;;
16320;SDS011;8269;50.990;4.494;2022-11-15T16:11:46;4.93;;;3.50;;
16320;SDS011;8269;50.990;4.494;2022-11-15T16:14:12;5.53;;;4.00;;
16320;SDS011;8269;50.990;4.494;2022-11-15T16:16:37;8.37;;;5.27;;
16320;SDS011;8269;50.990;4.494;2022-11-15T16:19:03;22.67;;;19.27;;
16320;SDS011;8269;50.990;4.494;2022-11-15T16:21:29;7.07;;;4.60;;
16320;SDS011;8269;50.990;4.494;2022-11-15T16:23:55;6.80;;;4.50;;
16320;SDS011;8269;50.990;4.494;2022-11-15T16:26:22;6.53;;;4.00;;
16320;SDS011;8269;50.990;4.494;2022-11-15T16:28:50;7.73;;;4.00;;
16320;SDS011;8269;50.990;4.494;2022-11-15T16:31:16;8.43;;;3.63;;
16320;SDS011;8269;50.990;4.494;2022-11-15T16:33:44;6.27;;;4.00;;
16320;SDS011;8269;50.990;4.494;2022-11-15T16:36:24;6.83;;;4.07;;
16320;SDS011;8269;50.990;4.494;2022-11-15T16:38:51;8.50;;;4.00;;
16320;SDS011;8269;50.990;4.494;2022-11-15T16:41:17;7.93;;;3.80;;
16320;SDS011;8269;50.990;4.494;2022-11-15T16:43:46;6.93;;;4.53;;
16320;SDS011;8269;50.990;4.494;2022-11-15T16:46:16;8.73;;;5.07;;
16320;SDS011;8269;50.990;4.494;2022-11-15T16:48:43;10.93;;;7.20;;
16320;SDS011;8269;50.990;4.494;2022-11-15T16:51:09;8.30;;;6.90;;
16320;SDS011;8269;50.990;4.494;2022-11-15T16:53:35;8.97;;;6.47;;
16320;SDS011;8269;50.990;4.494;2022-11-15T16:56:01;10.00;;;8.10;;
16320;SDS011;8269;50.990;4.494;2022-11-15T16:58:26;9.80;;;7.00;;
16320;SDS011;8269;50.990;4.494;2022-11-15T17:00:52;10.83;;;8.47;;
16320;SDS011;8269;50.990;4.494;2022-11-15T17:03:20;8.93;;;7.60;;
16320;SDS011;8269;50.990;4.494;2022-11-15T17:05:47;8.87;;;5.40;;
16320;SDS011;8269;50.990;4.494;2022-11-15T17:08:13;7.13;;;5.53;;
16320;SDS011;8269;50.990;4.494;2022-11-15T17:10:39;8.20;;;6.67;;
16320;SDS011;8269;50.990;4.494;2022-11-15T17:13:11;7.47;;;6.57;;
16320;SDS011;8269;50.990;4.494;2022-11-15T17:15:37;12.67;;;8.93;;
16320;SDS011;8269;50.990;4.494;2022-11-15T17:18:03;19.53;;;17.43;;
16320;SDS011;8269;50.990;4.494;2022-11-15T17:20:30;8.73;;;6.07;;
16320;SDS011;8269;50.990;4.494;2022-11-15T17:22:56;10.63;;;7.83;;
16320;SDS011;8269;50.990;4.494;2022-11-15T17:25:22;9.77;;;7.00;;
16320;SDS011;8269;50.990;4.494;2022-11-15T17:27:47;8.87;;;7.17;;
16320;SDS011;8269;50.990;4.494;2022-11-15T17:30:13;10.40;;;7.03;;
16320;SDS011;8269;50.990;4.494;2022-11-15T17:32:40;12.80;;;9.00;;
16320;SDS011;8269;50.990;4.494;2022-11-15T17:35:07;11.13;;;8.30;;
16320;SDS011;8269;50.990;4.494;2022-11-15T17:37:34;12.17;;;9.57;;
16320;SDS011;8269;50.990;4.494;2022-11-15T17:40:00;15.90;;;11.70;;
16320;SDS011;8269;50.990;4.494;2022-11-15T17:42:26;17.47;;;13.47;;
16320;SDS011;8269;50.990;4.494;2022-11-15T17:44:52;16.50;;;11.07;;
16320;SDS011;8269;50.990;4.494;2022-11-15T17:47:17;12.90;;;8.93;;
16320;SDS011;8269;50.990;4.494;2022-11-15T17:49:43;10.27;;;9.00;;
16320;SDS011;8269;50.990;4.494;2022-11-15T17:52:08;11.10;;;9.90;;
16320;SDS011;8269;50.990;4.494;2022-11-15T17:54:34;9.63;;;7.40;;
16320;SDS011;8269;50.990;4.494;2022-11-15T17:57:00;10.33;;;9.10;;
16320;SDS011;8269;50.990;4.494;2022-11-15T17:59:25;13.27;;;9.40;;
16320;SDS011;8269;50.990;4.494;2022-11-15T18:01:51;10.67;;;8.67;;
16320;SDS011;8269;50.990;4.494;2022-11-15T18:04:18;9.93;;;8.03;;
16320;SDS011;8269;50.990;4.494;2022-11-15T18:06:44;10.87;;;7.90;;
16320;SDS011;8269;50.990;4.494;2022-11-15T18:09:09;10.83;;;7.90;;
16320;SDS011;8269;50.990;4.494;2022-11-15T18:11:37;10.63;;;9.53;;
16320;SDS011;8269;50.990;4.494;2022-11-15T18:14:05;10.93;;;9.03;;
16320;SDS011;8269;50.990;4.494;2022-11-15T18:16:33;13.97;;;9.63;;
16320;SDS011;8269;50.990;4.494;2022-11-15T18:19:00;9.33;;;8.13;;
16320;SDS011;8269;50.990;4.494;2022-11-15T18:21:30;7.83;;;7.03;;
16320;SDS011;8269;50.990;4.494;2022-11-15T18:23:58;12.20;;;8.50;;
16320;SDS011;8269;50.990;4.494;2022-11-15T18:26:25;14.13;;;9.17;;
16320;SDS011;8269;50.990;4.494;2022-11-15T18:28:53;10.27;;;8.73;;